Buena Ventura — 3EEN — position and weather

sailwx.info

Track history (hours):
 
Tides and Currents Weather Stations Pressure Air Temp Water Temp Dewpoint Dewpoint Depression Visibility Wind Speed Wind Dir Waves Ship Positions

Buena Ventura

Last reported at 2017-Dec-19 23:08 UTC. Time now 2018-Jan-24 06:03 UTC.
Position N 29°13' W 115°45'.
Warning: this ship's position is 35 days out of date.

Length 209 m; draft 7.8 m.

Type: Cargo ship. MMSI: 357777000.

Date/timePositionNaut miles runAvg speedWind from/ knotsBaromVisibWave heightAir tempDewpointWater temp
2017-Dec-19 23:08N 29°13' W 115°45'215.3
2017-Dec-19 23:00N 29°15' W 115°46'815.3
2017-Dec-19 22:30N 29°21' W 115°51'16614.0
2017-Dec-19 10:42N 31°45' W 117°25'313.9
2017-Dec-19 10:27N 31°49' W 117°27'2113.8
2017-Dec-19 08:57N 32°08' W 117°35'613.6
2017-Dec-19 08:30N 32°14' W 117°38'713.6
2017-Dec-19 08:00N 32°20' W 117°40'713.5
2017-Dec-19 07:30N 32°26' W 117°43'713.5
2017-Dec-19 07:00N 32°33' W 117°46'713.8
2017-Dec-19 06:30N 32°39' W 117°48'714.3
2017-Dec-19 06:01N 32°46' W 117°52'714.2
2017-Dec-19 05:30N 32°52' W 117°55'714.2
2017-Dec-19 05:00N 32°59' W 117°58'714.0
2017-Dec-19 04:30N 33°06' W 118°00'713.9
2017-Dec-19 04:00N 33°12' W 118°03'713.5
2017-Dec-19 03:31N 33°19' W 118°06'612.9
2017-Dec-19 03:01N 33°25' W 118°09'612.8
2017-Dec-19 02:31N 33°31' W 118°11'611.6
2017-Dec-19 02:01N 33°36' W 118°13'510.8
2017-Dec-19 01:30N 33°42' W 118°12'3 5.7
2017-Dec-19 01:00N 33°44' W 118°13'0 0.6
2017-Dec-19 00:27N 33°44' W 118°13'0 0.0
2017-Dec-18 23:57N 33°44' W 118°13'0 0.1
2017-Dec-18 23:27N 33°44' W 118°13'0 0.0
2017-Dec-18 23:00N 33°44' W 118°13'0 0.1
2017-Dec-18 22:27N 33°44' W 118°13'0 0.0
2017-Dec-18 21:57N 33°44' W 118°13'0 0.1
2017-Dec-18 21:21N 33°44' W 118°13'0 0.0
2017-Dec-18 20:57N 33°44' W 118°13'0 0.1
2017-Dec-18 20:27N 33°44' W 118°13'0 0.2
2017-Dec-18 19:57N 33°44' W 118°13'0 0.2
2017-Dec-18 19:21N 33°44' W 118°13'0 0.0
2017-Dec-18 15:39N 33°44' W 118°13'0 1.0
2017-Dec-18 15:30N 33°44' W 118°13'5 6.3
2017-Dec-18 14:46N 33°39' W 118°11'2 7.1
2017-Dec-18 14:30N 33°38' W 118°13'3 6.4
2017-Dec-18 14:00N 33°36' W 118°16'3 6.9
2017-Dec-18 13:30N 33°36' W 118°20'4 7.1
2017-Dec-18 13:00N 33°38' W 118°24'4 7.5
2017-Dec-18 12:30N 33°39' W 118°28'3 6.8
2017-Dec-18 12:00N 33°41' W 118°31'4 7.7
2017-Dec-18 11:30N 33°43' W 118°35'5 9.8
2017-Dec-18 11:00N 33°45' W 118°40'5 9.8
2017-Dec-18 10:30N 33°48' W 118°45'510.2
2017-Dec-18 10:00N 33°50' W 118°51'611.5
2017-Dec-18 09:30N 33°53' W 118°57'611.5
2017-Dec-18 08:56N 33°57' W 119°04'511.7
2017-Dec-18 08:30N 33°59' W 119°09'611.3
2017-Dec-18 08:00N 34°02' W 119°15'510.4
2017-Dec-18 07:29N 34°04' W 119°21'510.6
2017-Dec-18 06:59N 34°05' W 119°27'5 9.6
2017-Dec-18 06:30N 34°06' W 119°33'5 9.3
2017-Dec-18 06:00N 34°07' W 119°38'5 9.5
2017-Dec-18 05:30N 34°09' W 119°43'5 9.8
2017-Dec-18 05:00N 34°10' W 119°49'7 9.8
2017-Dec-18 04:20N 34°12' W 119°57'3 9.7
2017-Dec-18 04:00N 34°13' W 120°01'5 9.8
2017-Dec-18 03:27N 34°14' W 120°07'4 9.7
2017-Dec-18 03:00N 34°15' W 120°12'5 9.4
2017-Dec-18 02:29N 34°16' W 120°18'5 9.7
2017-Dec-18 01:59N 34°18' W 120°23'510.1
2017-Dec-18 01:30N 34°19' W 120°29'610.1
2017-Dec-18 00:57N 34°21' W 120°35'511.3
2017-Dec-18 00:30N 34°22' W 120°41'611.4
2017-Dec-18 00:00N 34°23' W 120°48'610.7
2017-Dec-17 23:30N 34°25' W 120°54'510.3
2017-Dec-17 22:59N 34°26' W 121°01'511.4
2017-Dec-17 22:30N 34°27' W 121°07'611.6
2017-Dec-17 22:00N 34°29' W 121°14'611.4
2017-Dec-17 21:30N 34°31' W 121°20'510.7
2017-Dec-17 21:00N 34°32' W 121°26'611.4
2017-Dec-17 20:31N 34°36' W 121°31'611.8
2017-Dec-17 20:00N 34°42' W 121°35'611.5
2017-Dec-17 19:31N 34°46' W 121°39'5 9.2
2017-Dec-17 19:00N 34°50' W 121°41'511.1
2017-Dec-17 18:30N 34°55' W 121°44'611.3
2017-Dec-17 18:00N 35°00' W 121°48'611.3
2017-Dec-17 17:31N 35°05' W 121°51'611.4
2017-Dec-17 17:00N 35°10' W 121°55'611.5
2017-Dec-17 16:27N 35°16' W 121°58'511.1
2017-Dec-17 16:00N 35°20' W 122°02'611.2
2017-Dec-17 15:30N 35°25' W 122°05'611.6
2017-Dec-17 15:01N 35°30' W 122°09'611.7
2017-Dec-17 14:30N 35°35' W 122°12'611.3
2017-Dec-17 14:00N 35°40' W 122°16'611.5
2017-Dec-17 13:30N 35°45' W 122°20'611.7
2017-Dec-17 13:00N 35°50' W 122°23'611.5
2017-Dec-17 12:30N 35°55' W 122°27'611.5
2017-Dec-17 12:00N 35°60' W 122°30'510.6
2017-Dec-17 11:30N 36°04' W 122°34'611.1
2017-Dec-17 11:00N 36°09' W 122°37'611.7
2017-Dec-17 10:31N 36°14' W 122°41'510.7
2017-Dec-17 10:00N 36°19' W 122°44'611.5
2017-Dec-17 09:30N 36°24' W 122°48'611.2
2017-Dec-17 09:00N 36°28' W 122°51'510.8
2017-Dec-17 08:30N 36°33' W 122°55'611.3
2017-Dec-17 08:00N 36°38' W 122°58'5 9.3
2017-Dec-17 07:30N 36°42' W 123°01'611.1
2017-Dec-17 06:57N 36°47' W 123°05'512.2
2017-Dec-17 06:30N 36°52' W 123°09'611.7
2017-Dec-17 06:00N 36°57' W 123°12'5 9.9
2017-Dec-17 05:30N 37°01' W 123°15'510.0
2017-Dec-17 05:00N 37°06' W 123°19'612.0
2017-Dec-17 04:30N 37°11' W 123°22'612.0
2017-Dec-17 04:00N 37°16' W 123°26'5 9.8
2017-Dec-17 03:30N 37°20' W 123°29'510.3
2017-Dec-17 03:00N 37°25' W 123°33'611.9
2017-Dec-17 02:28N 37°30' W 123°37'612.2
2017-Dec-17 01:59N 37°35' W 123°40'612.1
2017-Dec-17 01:30N 37°40' W 123°44'611.4
2017-Dec-17 01:00N 37°45' W 123°48'510.4
2017-Dec-17 00:30N 37°50' W 123°51'510.4
2017-Dec-17 00:00N 37°55' W 123°53'610.4
2017-Dec-16 23:26N 38°00' W 123°56'410.3
2017-Dec-16 23:00N 38°04' W 123°58'4 8.2
2017-Dec-16 22:30N 38°08' W 123°59'5 9.5
2017-Dec-16 22:00N 38°13' W 124°01'611.6
2017-Dec-16 21:30N 38°18' W 124°04'611.8
2017-Dec-16 21:00N 38°24' W 124°07'611.9
2017-Dec-16 20:29N 38°29' W 124°09'37611.7
2017-Dec-15 12:23N 44°44' W 124°50'512.3
2017-Dec-15 12:00N 44°48' W 124°47'612.5
2017-Dec-15 11:30N 44°54' W 124°45'612.4
2017-Dec-15 11:00N 45°00' W 124°43'612.1
2017-Dec-15 10:30N 45°06' W 124°41'811.8
2017-Dec-15 09:52N 45°13' W 124°37'611.9
2017-Dec-15 09:20N 45°19' W 124°35'412.0
2017-Dec-15 09:00N 45°23' W 124°33'611.8
2017-Dec-15 08:30N 45°29' W 124°30'611.9
2017-Dec-15 08:00N 45°34' W 124°27'611.8
2017-Dec-15 07:30N 45°40' W 124°25'612.0
2017-Dec-15 07:00N 45°46' W 124°22'712.2
2017-Dec-15 06:28N 45°52' W 124°19'612.3
2017-Dec-15 06:00N 45°57' W 124°16'1212.5
2017-Dec-15 05:05N 46°08' W 124°12'113.2
2017-Dec-15 05:00N 46°09' W 124°13'5 9.8
2017-Dec-15 04:30N 46°13' W 124°08'510.7
2017-Dec-15 04:01N 46°15' W 124°01'1510.1
2017-Dec-15 02:31N 46°16' W 123°39'1811.7
2017-Dec-15 01:01N 46°09' W 123°15'713.3
2017-Dec-15 00:30N 46°10' W 123°06'5 0.9
2017-Dec-14 18:28N 46°08' W 122°59'0 0.0
2017-Dec-14 17:58N 46°08' W 122°59'0 0.0
2017-Dec-14 17:28N 46°08' W 122°59'0 0.0
2017-Dec-14 16:58N 46°08' W 122°59'0 0.0
2017-Dec-14 16:25N 46°08' W 122°59'0 0.0
2017-Dec-14 15:58N 46°08' W 122°59'0 0.0
2017-Dec-14 14:58N 46°08' W 122°59'0 0.0
2017-Dec-14 14:16N 46°08' W 122°59'0 0.0
2017-Dec-14 13:58N 46°08' W 122°59'0 0.0
2017-Dec-14 13:28N 46°08' W 122°59'0 0.0
2017-Dec-14 12:58N 46°08' W 122°59'0 0.0
2017-Dec-14 12:25N 46°08' W 122°59'0 0.0
2017-Dec-14 11:58N 46°08' W 122°59'0 0.0
2017-Dec-14 11:25N 46°08' W 122°59'0 0.0
2017-Dec-14 10:58N 46°08' W 122°59'0 0.0
2017-Dec-14 10:22N 46°08' W 122°59'0 0.0
2017-Dec-14 09:58N 46°08' W 122°59'0 0.0
2017-Dec-14 09:23N 46°08' W 122°59'0 0.0
2017-Dec-14 08:58N 46°08' W 122°59'0 0.0
2017-Dec-14 08:28N 46°08' W 122°59'0 0.0
2017-Dec-14 07:59N 46°08' W 122°59'0 0.0
2017-Dec-14 07:22N 46°08' W 122°59'0 0.0
2017-Dec-14 06:55N 46°08' W 122°59'0 0.0
2017-Dec-14 06:28N 46°08' W 122°59'0 0.0
2017-Dec-14 05:58N 46°08' W 122°59'0 0.0
2017-Dec-14 05:28N 46°08' W 122°59'0 0.0
2017-Dec-14 04:59N 46°08' W 122°59'0 0.0
2017-Dec-14 04:28N 46°08' W 122°59'0 0.0
2017-Dec-14 03:58N 46°08' W 122°59'0 0.0
2017-Dec-14 03:25N 46°08' W 122°59'0 0.0
2017-Dec-14 02:52N 46°08' W 122°59'0 0.0
2017-Dec-14 02:25N 46°08' W 122°59'0 0.0
2017-Dec-14 01:55N 46°08' W 122°59'0 0.0
2017-Dec-14 01:28N 46°08' W 122°59'0 0.0
2017-Dec-14 00:52N 46°08' W 122°59'0 0.0
2017-Dec-14 00:28N 46°08' W 122°59'0 0.0
2017-Dec-13 23:55N 46°08' W 122°59'0 0.0
2017-Dec-13 23:10N 46°08' W 122°59'0 0.0
2017-Dec-13 22:59N 46°08' W 122°59'0 0.0
2017-Dec-13 22:28N 46°08' W 122°59'0 0.0
2017-Dec-13 21:58N 46°08' W 122°59'0 0.0
2017-Dec-13 21:28N 46°08' W 122°59'0 0.0
2017-Dec-13 20:58N 46°08' W 122°59'0 0.0
2017-Dec-13 20:25N 46°08' W 122°59'0 0.0
2017-Dec-13 19:58N 46°08' W 122°59'0 0.0
2017-Dec-13 19:28N 46°08' W 122°59'0 0.0
2017-Dec-13 18:58N 46°08' W 122°59'0 0.0
2017-Dec-13 18:28N 46°08' W 122°59'0 0.0
2017-Dec-13 17:58N 46°08' W 122°59'0 0.0
2017-Dec-13 17:28N 46°08' W 122°59'0 0.0
2017-Dec-13 16:58N 46°08' W 122°59'0 0.0
2017-Dec-13 16:28N 46°08' W 122°59'0 0.0
2017-Dec-13 15:58N 46°08' W 122°59'0 0.0
2017-Dec-13 15:25N 46°08' W 122°59'0 0.0
2017-Dec-13 14:58N 46°08' W 122°59'0 0.0
2017-Dec-13 14:28N 46°08' W 122°59'0 0.0
2017-Dec-13 13:58N 46°08' W 122°59'0 0.0
2017-Dec-13 13:28N 46°08' W 122°59'0 0.0
2017-Dec-13 12:58N 46°08' W 122°59'0 0.0
2017-Dec-13 12:28N 46°08' W 122°59'0 0.0
2017-Dec-13 11:52N 46°08' W 122°59'0 0.0
2017-Dec-13 11:25N 46°08' W 122°59'0 0.0
2017-Dec-13 10:58N 46°08' W 122°59'0 0.0
2017-Dec-13 10:28N 46°08' W 122°59'0 0.0
2017-Dec-13 09:55N 46°08' W 122°59'0 0.0
2017-Dec-13 09:28N 46°08' W 122°59'0 0.0
2017-Dec-13 08:55N 46°08' W 122°59'0 0.0
2017-Dec-13 08:28N 46°08' W 122°59'0 0.0
2017-Dec-13 07:28N 46°08' W 122°59'0 0.0
2017-Dec-13 06:58N 46°08' W 122°59'0 0.0
2017-Dec-13 06:25N 46°08' W 122°59'0 0.0
2017-Dec-13 05:58N 46°08' W 122°59'0 0.0
2017-Dec-13 05:28N 46°08' W 122°59'0 0.0
2017-Dec-13 04:58N 46°08' W 122°59'0 0.0
2017-Dec-13 04:25N 46°08' W 122°59'0 0.0
2017-Dec-13 03:55N 46°08' W 122°59'0 0.0
2017-Dec-13 03:25N 46°08' W 122°59'0 0.0
2017-Dec-13 02:55N 46°08' W 122°59'0 0.0
2017-Dec-13 02:28N 46°08' W 122°59'0 0.0
2017-Dec-13 01:28N 46°08' W 122°59'0 0.0
2017-Dec-13 00:58N 46°08' W 122°59'0 0.0
2017-Dec-13 00:25N 46°08' W 122°59'0 0.0
2017-Dec-12 23:55N 46°08' W 122°59'0 0.0
2017-Dec-12 23:28N 46°08' W 122°59'0 0.0
2017-Dec-12 22:58N 46°08' W 122°59'0 0.0
2017-Dec-12 22:25N 46°08' W 122°59'0 0.0
2017-Dec-12 21:58N 46°08' W 122°59'0 0.0
2017-Dec-12 21:22N 46°08' W 122°59'0 0.0
2017-Dec-12 20:58N 46°08' W 122°59'0 0.0
2017-Dec-12 20:28N 46°08' W 122°59'0 0.0
2017-Dec-12 19:58N 46°08' W 122°59'0 0.0
2017-Dec-12 19:07N 46°08' W 122°59'0 0.0
2017-Dec-12 18:43N 46°08' W 122°59'0 0.0
2017-Dec-12 18:25N 46°08' W 122°59'0 0.0
2017-Dec-12 17:55N 46°08' W 122°59'0 0.0
2017-Dec-12 17:25N 46°08' W 122°59'0 0.0
2017-Dec-12 16:59N 46°08' W 122°59'0 0.0
2017-Dec-12 16:25N 46°08' W 122°59'0 0.0
2017-Dec-12 15:55N 46°08' W 122°59'0 0.0
2017-Dec-12 15:25N 46°08' W 122°59'0 0.0
2017-Dec-12 14:59N 46°08' W 122°59'0 0.0
2017-Dec-12 14:25N 46°08' W 122°59'0 0.0
2017-Dec-12 13:58N 46°08' W 122°59'0 0.0
2017-Dec-12 13:28N 46°08' W 122°59'0 0.0
2017-Dec-12 12:58N 46°08' W 122°59'0 0.0
2017-Dec-12 12:10N 46°08' W 122°59'0 0.0
2017-Dec-12 11:58N 46°08' W 122°59'0 0.0
2017-Dec-12 11:28N 46°08' W 122°59'0 0.0
2017-Dec-12 10:55N 46°08' W 122°59'0 0.0
2017-Dec-12 10:19N 46°08' W 122°59'0 0.0
2017-Dec-12 10:01N 46°08' W 122°59'0 0.8
2017-Dec-12 09:30N 46°08' W 123°00'3 5.1
2017-Dec-12 09:01N 46°09' W 123°03'510.7
2017-Dec-12 08:30N 46°11' W 123°10'611.3
2017-Dec-12 08:00N 46°09' W 123°17'5 9.6
2017-Dec-12 07:30N 46°10' W 123°24'5 9.7
2017-Dec-12 07:00N 46°14' W 123°26'510.3
2017-Dec-12 06:30N 46°15' W 123°33'611.5
2017-Dec-12 06:00N 46°15' W 123°41'6 9.7
2017-Dec-12 05:24N 46°12' W 123°49'4 9.8
2017-Dec-12 05:00N 46°11' W 123°54'510.6
2017-Dec-12 04:30N 46°15' W 124°00'5 9.9
2017-Dec-12 04:00N 46°14' W 124°07'611.4
2017-Dec-12 03:30N 46°10' W 124°14'5 9.3
2017-Dec-12 03:00N 46°09' W 124°21'5 9.8
2017-Dec-12 02:27N 46°13' W 124°26'512.0
2017-Dec-12 02:00N 46°18' W 124°29'811.7
2017-Dec-12 01:20N 46°25' W 124°34'412.1
2017-Dec-12 01:00N 46°29' W 124°36'510.2
2017-Dec-12 00:30N 46°33' W 124°40'5 9.2
2017-Dec-12 00:01N 46°38' W 124°42'612.8
2017-Dec-11 23:31N 46°44' W 124°45'713.1
2017-Dec-11 23:00N 46°50' W 124°48'612.8
2017-Dec-11 22:30N 46°56' W 124°51'612.5
2017-Dec-11 22:00N 47°02' W 124°55'612.5
2017-Dec-11 21:30N 47°07' W 124°59'612.5
2017-Dec-11 21:00N 47°13' W 125°02'612.6
2017-Dec-11 20:30N 47°19' W 125°06'612.7
2017-Dec-11 20:00N 47°25' W 125°10'612.7
2017-Dec-11 19:30N 47°30' W 125°14'815.2
2017-Dec-11 19:00N 47°37' W 125°18'1018.3
2017-Dec-11 18:28N 47°47' W 125°22'2 3.7
2017-Dec-11 18:00N 47°49' W 125°22'1119.5
2017-Dec-11 17:26N 47°60' W 125°20'1 2.9
2017-Dec-11 17:00N 48°01' W 125°20'713.0
2017-Dec-11 16:27N 48°08' W 125°16'613.4
2017-Dec-11 16:00N 48°13' W 125°13'613.2
2017-Dec-11 15:30N 48°20' W 125°10'712.9
2017-Dec-11 15:00N 48°26' W 125°07'612.8
2017-Dec-11 14:30N 48°31' W 125°01'713.7
2017-Dec-11 14:00N 48°31' W 124°50'713.6
2017-Dec-11 13:30N 48°30' W 124°40'714.4
2017-Dec-11 13:00N 48°27' W 124°30'714.7
2017-Dec-11 12:30N 48°24' W 124°20'715.0
2017-Dec-11 12:00N 48°21' W 124°10'714.9
2017-Dec-11 11:30N 48°18' W 123°59'815.0
2017-Dec-11 11:00N 48°17' W 123°48'815.5
2017-Dec-11 10:30N 48°16' W 123°37'612.6
2017-Dec-11 10:00N 48°18' W 123°28'611.5
2017-Dec-11 09:31N 48°23' W 123°24'611.5
2017-Dec-11 09:00N 48°24' W 123°16'713.3
2017-Dec-11 08:31N 48°30' W 123°12'815.0
2017-Dec-11 08:01N 48°37' W 123°14'611.6
2017-Dec-11 07:30N 48°43' W 123°12'713.6
2017-Dec-11 07:00N 48°46' W 123°03'510.9
2017-Dec-11 06:30N 48°52' W 123°05'713.7
2017-Dec-11 05:59N 48°57' W 123°12'713.7
2017-Dec-11 05:30N 49°01' W 123°20'612.7
2017-Dec-11 05:00N 49°07' W 123°23'815.2
2017-Dec-11 04:30N 49°14' W 123°21'612.0
2017-Dec-11 04:00N 49°19' W 123°15'510.7
2017-Dec-11 03:30N 49°18' W 123°07'2 3.3
2017-Dec-11 03:00N 49°17' W 123°05'0 0.0
2017-Dec-11 02:30N 49°17' W 123°05'0 0.0
2017-Dec-11 02:00N 49°17' W 123°05'0 0.1
2017-Dec-11 01:30N 49°17' W 123°05'0 0.1
2017-Dec-11 01:00N 49°17' W 123°05'0 0.0
2017-Dec-11 00:30N 49°17' W 123°05'0 0.0
2017-Dec-11 00:00N 49°17' W 123°05'0 0.0
2017-Dec-10 23:30N 49°17' W 123°05'0 0.1
2017-Dec-10 23:00N 49°17' W 123°05'0 0.1
2017-Dec-10 22:30N 49°17' W 123°05'0 0.1
2017-Dec-10 22:00N 49°17' W 123°05'0 0.1
2017-Dec-10 21:30N 49°17' W 123°05'0 0.0
2017-Dec-10 21:00N 49°17' W 123°05'0 0.0
2017-Dec-10 20:30N 49°17' W 123°05'0 0.0
2017-Dec-10 20:00N 49°17' W 123°05'0 0.0
2017-Dec-10 19:30N 49°17' W 123°05'0 0.0
2017-Dec-10 19:00N 49°17' W 123°05'0 0.1
2017-Dec-10 18:30N 49°17' W 123°05'0 0.1
2017-Dec-10 18:00N 49°17' W 123°05'0 0.0
2017-Dec-10 17:30N 49°17' W 123°05'0 0.0
2017-Dec-10 17:00N 49°17' W 123°05'0 0.0
2017-Dec-10 16:30N 49°17' W 123°05'0 0.0
2017-Dec-10 16:00N 49°17' W 123°05'0 0.0
2017-Dec-10 15:30N 49°17' W 123°05'0 0.0
2017-Dec-10 15:00N 49°17' W 123°05'0 0.0
2017-Dec-10 14:30N 49°17' W 123°05'0 0.0
2017-Dec-10 14:00N 49°17' W 123°05'0 0.0
2017-Dec-10 13:30N 49°17' W 123°05'0 0.1
2017-Dec-10 13:00N 49°17' W 123°05'0 0.1
2017-Dec-10 12:30N 49°17' W 123°05'0 0.0
2017-Dec-10 12:00N 49°17' W 123°05'0 0.0
2017-Dec-10 11:30N 49°17' W 123°05'0 0.0
2017-Dec-10 11:00N 49°17' W 123°05'0 0.0
2017-Dec-10 10:30N 49°17' W 123°05'0 0.0
2017-Dec-10 10:00N 49°17' W 123°05'0 0.1
2017-Dec-10 09:30N 49°17' W 123°05'0 0.1
2017-Dec-10 09:00N 49°17' W 123°05'0 0.0
2017-Dec-10 08:30N 49°17' W 123°05'0 0.0
2017-Dec-10 08:00N 49°17' W 123°05'0 0.0
2017-Dec-10 07:30N 49°17' W 123°05'0 0.0
2017-Dec-10 07:00N 49°17' W 123°05'0 0.0
2017-Dec-10 06:30N 49°17' W 123°05'0 0.0
2017-Dec-10 06:00N 49°17' W 123°05'0 0.0
2017-Dec-10 05:30N 49°17' W 123°05'0 0.0
2017-Dec-10 05:00N 49°17' W 123°05'0 0.0
2017-Dec-10 04:30N 49°17' W 123°05'0 0.0
2017-Dec-10 04:00N 49°17' W 123°05'0 0.0
2017-Dec-10 03:30N 49°17' W 123°05'0 0.0
2017-Dec-10 03:00N 49°17' W 123°05'0 0.0
2017-Dec-10 02:30N 49°17' W 123°05'0 0.0
2017-Dec-10 02:00N 49°17' W 123°05'0 0.0
2017-Dec-10 01:30N 49°17' W 123°05'0 0.0
2017-Dec-10 01:00N 49°17' W 123°05'0 0.1
2017-Dec-10 00:30N 49°17' W 123°05'0 0.1
2017-Dec-10 00:00N 49°17' W 123°05'0 0.0
2017-Dec-09 23:30N 49°17' W 123°05'  
Track history (hours):
 
Tides and Currents Weather Stations Pressure Air Temp Water Temp Dewpoint Dewpoint Depression Visibility Wind Speed Wind Dir Waves Ship Positions

Buena Ventura

Last reported at 2017-Dec-19 23:08 UTC. Time now 2018-Jan-24 06:03 UTC.
Position N 29°13' W 115°45'.
Warning: this ship's position is 35 days out of date.

Length 209 m; draft 7.8 m.

Type: Cargo ship. MMSI: 357777000.

Date/timePositionNaut miles runAvg speedWind from/ knotsBaromVisibWave heightAir tempDewpointWater temp
2017-Dec-19 23:08N 29°13' W 115°45'215.3
2017-Dec-19 23:00N 29°15' W 115°46'815.3
2017-Dec-19 22:30N 29°21' W 115°51'16614.0
2017-Dec-19 10:42N 31°45' W 117°25'313.9
2017-Dec-19 10:27N 31°49' W 117°27'2113.8
2017-Dec-19 08:57N 32°08' W 117°35'613.6
2017-Dec-19 08:30N 32°14' W 117°38'713.6
2017-Dec-19 08:00N 32°20' W 117°40'713.5
2017-Dec-19 07:30N 32°26' W 117°43'713.5
2017-Dec-19 07:00N 32°33' W 117°46'713.8
2017-Dec-19 06:30N 32°39' W 117°48'714.3
2017-Dec-19 06:01N 32°46' W 117°52'714.2
2017-Dec-19 05:30N 32°52' W 117°55'714.2
2017-Dec-19 05:00N 32°59' W 117°58'714.0
2017-Dec-19 04:30N 33°06' W 118°00'713.9
2017-Dec-19 04:00N 33°12' W 118°03'713.5
2017-Dec-19 03:31N 33°19' W 118°06'612.9
2017-Dec-19 03:01N 33°25' W 118°09'612.8
2017-Dec-19 02:31N 33°31' W 118°11'611.6
2017-Dec-19 02:01N 33°36' W 118°13'510.8
2017-Dec-19 01:30N 33°42' W 118°12'3 5.7
2017-Dec-19 01:00N 33°44' W 118°13'0 0.6
2017-Dec-19 00:27N 33°44' W 118°13'0 0.0
2017-Dec-18 23:57N 33°44' W 118°13'0 0.1
2017-Dec-18 23:27N 33°44' W 118°13'0 0.0
2017-Dec-18 23:00N 33°44' W 118°13'0 0.1
2017-Dec-18 22:27N 33°44' W 118°13'0 0.0
2017-Dec-18 21:57N 33°44' W 118°13'0 0.1
2017-Dec-18 21:21N 33°44' W 118°13'0 0.0
2017-Dec-18 20:57N 33°44' W 118°13'0 0.1
2017-Dec-18 20:27N 33°44' W 118°13'0 0.2
2017-Dec-18 19:57N 33°44' W 118°13'0 0.2
2017-Dec-18 19:21N 33°44' W 118°13'0 0.0
2017-Dec-18 15:39N 33°44' W 118°13'0 1.0
2017-Dec-18 15:30N 33°44' W 118°13'5 6.3
2017-Dec-18 14:46N 33°39' W 118°11'2 7.1
2017-Dec-18 14:30N 33°38' W 118°13'3 6.4
2017-Dec-18 14:00N 33°36' W 118°16'3 6.9
2017-Dec-18 13:30N 33°36' W 118°20'4 7.1
2017-Dec-18 13:00N 33°38' W 118°24'4 7.5
2017-Dec-18 12:30N 33°39' W 118°28'3 6.8
2017-Dec-18 12:00N 33°41' W 118°31'4 7.7
2017-Dec-18 11:30N 33°43' W 118°35'5 9.8
2017-Dec-18 11:00N 33°45' W 118°40'5 9.8
2017-Dec-18 10:30N 33°48' W 118°45'510.2
2017-Dec-18 10:00N 33°50' W 118°51'611.5
2017-Dec-18 09:30N 33°53' W 118°57'611.5
2017-Dec-18 08:56N 33°57' W 119°04'511.7
2017-Dec-18 08:30N 33°59' W 119°09'611.3
2017-Dec-18 08:00N 34°02' W 119°15'510.4
2017-Dec-18 07:29N 34°04' W 119°21'510.6
2017-Dec-18 06:59N 34°05' W 119°27'5 9.6
2017-Dec-18 06:30N 34°06' W 119°33'5 9.3
2017-Dec-18 06:00N 34°07' W 119°38'5 9.5
2017-Dec-18 05:30N 34°09' W 119°43'5 9.8
2017-Dec-18 05:00N 34°10' W 119°49'7 9.8
2017-Dec-18 04:20N 34°12' W 119°57'3 9.7
2017-Dec-18 04:00N 34°13' W 120°01'5 9.8
2017-Dec-18 03:27N 34°14' W 120°07'4 9.7
2017-Dec-18 03:00N 34°15' W 120°12'5 9.4
2017-Dec-18 02:29N 34°16' W 120°18'5 9.7
2017-Dec-18 01:59N 34°18' W 120°23'510.1
2017-Dec-18 01:30N 34°19' W 120°29'610.1
2017-Dec-18 00:57N 34°21' W 120°35'511.3
2017-Dec-18 00:30N 34°22' W 120°41'611.4
2017-Dec-18 00:00N 34°23' W 120°48'610.7
2017-Dec-17 23:30N 34°25' W 120°54'510.3
2017-Dec-17 22:59N 34°26' W 121°01'511.4
2017-Dec-17 22:30N 34°27' W 121°07'611.6
2017-Dec-17 22:00N 34°29' W 121°14'611.4
2017-Dec-17 21:30N 34°31' W 121°20'510.7
2017-Dec-17 21:00N 34°32' W 121°26'611.4
2017-Dec-17 20:31N 34°36' W 121°31'611.8
2017-Dec-17 20:00N 34°42' W 121°35'611.5
2017-Dec-17 19:31N 34°46' W 121°39'5 9.2
2017-Dec-17 19:00N 34°50' W 121°41'511.1
2017-Dec-17 18:30N 34°55' W 121°44'611.3
2017-Dec-17 18:00N 35°00' W 121°48'611.3
2017-Dec-17 17:31N 35°05' W 121°51'611.4
2017-Dec-17 17:00N 35°10' W 121°55'611.5
2017-Dec-17 16:27N 35°16' W 121°58'511.1
2017-Dec-17 16:00N 35°20' W 122°02'611.2
2017-Dec-17 15:30N 35°25' W 122°05'611.6
2017-Dec-17 15:01N 35°30' W 122°09'611.7
2017-Dec-17 14:30N 35°35' W 122°12'611.3
2017-Dec-17 14:00N 35°40' W 122°16'611.5
2017-Dec-17 13:30N 35°45' W 122°20'611.7
2017-Dec-17 13:00N 35°50' W 122°23'611.5
2017-Dec-17 12:30N 35°55' W 122°27'611.5
2017-Dec-17 12:00N 35°60' W 122°30'510.6
2017-Dec-17 11:30N 36°04' W 122°34'611.1
2017-Dec-17 11:00N 36°09' W 122°37'611.7
2017-Dec-17 10:31N 36°14' W 122°41'510.7
2017-Dec-17 10:00N 36°19' W 122°44'611.5
2017-Dec-17 09:30N 36°24' W 122°48'611.2
2017-Dec-17 09:00N 36°28' W 122°51'510.8
2017-Dec-17 08:30N 36°33' W 122°55'611.3
2017-Dec-17 08:00N 36°38' W 122°58'5 9.3
2017-Dec-17 07:30N 36°42' W 123°01'611.1
2017-Dec-17 06:57N 36°47' W 123°05'512.2
2017-Dec-17 06:30N 36°52' W 123°09'611.7
2017-Dec-17 06:00N 36°57' W 123°12'5 9.9
2017-Dec-17 05:30N 37°01' W 123°15'510.0
2017-Dec-17 05:00N 37°06' W 123°19'612.0
2017-Dec-17 04:30N 37°11' W 123°22'612.0
2017-Dec-17 04:00N 37°16' W 123°26'5 9.8
2017-Dec-17 03:30N 37°20' W 123°29'510.3
2017-Dec-17 03:00N 37°25' W 123°33'611.9
2017-Dec-17 02:28N 37°30' W 123°37'612.2
2017-Dec-17 01:59N 37°35' W 123°40'612.1
2017-Dec-17 01:30N 37°40' W 123°44'611.4
2017-Dec-17 01:00N 37°45' W 123°48'510.4
2017-Dec-17 00:30N 37°50' W 123°51'510.4
2017-Dec-17 00:00N 37°55' W 123°53'610.4
2017-Dec-16 23:26N 38°00' W 123°56'410.3
2017-Dec-16 23:00N 38°04' W 123°58'4 8.2
2017-Dec-16 22:30N 38°08' W 123°59'5 9.5
2017-Dec-16 22:00N 38°13' W 124°01'611.6
2017-Dec-16 21:30N 38°18' W 124°04'611.8
2017-Dec-16 21:00N 38°24' W 124°07'611.9
2017-Dec-16 20:29N 38°29' W 124°09'37611.7
2017-Dec-15 12:23N 44°44' W 124°50'512.3
2017-Dec-15 12:00N 44°48' W 124°47'612.5
2017-Dec-15 11:30N 44°54' W 124°45'612.4
2017-Dec-15 11:00N 45°00' W 124°43'612.1
2017-Dec-15 10:30N 45°06' W 124°41'811.8
2017-Dec-15 09:52N 45°13' W 124°37'611.9
2017-Dec-15 09:20N 45°19' W 124°35'412.0
2017-Dec-15 09:00N 45°23' W 124°33'611.8
2017-Dec-15 08:30N 45°29' W 124°30'611.9
2017-Dec-15 08:00N 45°34' W 124°27'611.8
2017-Dec-15 07:30N 45°40' W 124°25'612.0
2017-Dec-15 07:00N 45°46' W 124°22'712.2
2017-Dec-15 06:28N 45°52' W 124°19'612.3
2017-Dec-15 06:00N 45°57' W 124°16'1212.5
2017-Dec-15 05:05N 46°08' W 124°12'113.2
2017-Dec-15 05:00N 46°09' W 124°13'5 9.8
2017-Dec-15 04:30N 46°13' W 124°08'510.7
2017-Dec-15 04:01N 46°15' W 124°01'1510.1
2017-Dec-15 02:31N 46°16' W 123°39'1811.7
2017-Dec-15 01:01N 46°09' W 123°15'713.3
2017-Dec-15 00:30N 46°10' W 123°06'5 0.9
2017-Dec-14 18:28N 46°08' W 122°59'0 0.0
2017-Dec-14 17:58N 46°08' W 122°59'0 0.0
2017-Dec-14 17:28N 46°08' W 122°59'0 0.0
2017-Dec-14 16:58N 46°08' W 122°59'0 0.0
2017-Dec-14 16:25N 46°08' W 122°59'0 0.0
2017-Dec-14 15:58N 46°08' W 122°59'0 0.0
2017-Dec-14 14:58N 46°08' W 122°59'0 0.0
2017-Dec-14 14:16N 46°08' W 122°59'0 0.0
2017-Dec-14 13:58N 46°08' W 122°59'0 0.0
2017-Dec-14 13:28N 46°08' W 122°59'0 0.0
2017-Dec-14 12:58N 46°08' W 122°59'0 0.0
2017-Dec-14 12:25N 46°08' W 122°59'0 0.0
2017-Dec-14 11:58N 46°08' W 122°59'0 0.0
2017-Dec-14 11:25N 46°08' W 122°59'0 0.0
2017-Dec-14 10:58N 46°08' W 122°59'0 0.0
2017-Dec-14 10:22N 46°08' W 122°59'0 0.0
2017-Dec-14 09:58N 46°08' W 122°59'0 0.0
2017-Dec-14 09:23N 46°08' W 122°59'0 0.0
2017-Dec-14 08:58N 46°08' W 122°59'0 0.0
2017-Dec-14 08:28N 46°08' W 122°59'0 0.0
2017-Dec-14 07:59N 46°08' W 122°59'0 0.0
2017-Dec-14 07:22N 46°08' W 122°59'0 0.0
2017-Dec-14 06:55N 46°08' W 122°59'0 0.0
2017-Dec-14 06:28N 46°08' W 122°59'0 0.0
2017-Dec-14 05:58N 46°08' W 122°59'0 0.0
2017-Dec-14 05:28N 46°08' W 122°59'0 0.0
2017-Dec-14 04:59N 46°08' W 122°59'0 0.0
2017-Dec-14 04:28N 46°08' W 122°59'0 0.0
2017-Dec-14 03:58N 46°08' W 122°59'0 0.0
2017-Dec-14 03:25N 46°08' W 122°59'0 0.0
2017-Dec-14 02:52N 46°08' W 122°59'0 0.0
2017-Dec-14 02:25N 46°08' W 122°59'0 0.0
2017-Dec-14 01:55N 46°08' W 122°59'0 0.0
2017-Dec-14 01:28N 46°08' W 122°59'0 0.0
2017-Dec-14 00:52N 46°08' W 122°59'0 0.0
2017-Dec-14 00:28N 46°08' W 122°59'0 0.0
2017-Dec-13 23:55N 46°08' W 122°59'0 0.0
2017-Dec-13 23:10N 46°08' W 122°59'0 0.0
2017-Dec-13 22:59N 46°08' W 122°59'0 0.0
2017-Dec-13 22:28N 46°08' W 122°59'0 0.0
2017-Dec-13 21:58N 46°08' W 122°59'0 0.0
2017-Dec-13 21:28N 46°08' W 122°59'0 0.0
2017-Dec-13 20:58N 46°08' W 122°59'0 0.0
2017-Dec-13 20:25N 46°08' W 122°59'0 0.0
2017-Dec-13 19:58N 46°08' W 122°59'0 0.0
2017-Dec-13 19:28N 46°08' W 122°59'0 0.0
2017-Dec-13 18:58N 46°08' W 122°59'0 0.0
2017-Dec-13 18:28N 46°08' W 122°59'0 0.0
2017-Dec-13 17:58N 46°08' W 122°59'0 0.0
2017-Dec-13 17:28N 46°08' W 122°59'0 0.0
2017-Dec-13 16:58N 46°08' W 122°59'0 0.0
2017-Dec-13 16:28N 46°08' W 122°59'0 0.0
2017-Dec-13 15:58N 46°08' W 122°59'0 0.0
2017-Dec-13 15:25N 46°08' W 122°59'0 0.0
2017-Dec-13 14:58N 46°08' W 122°59'0 0.0
2017-Dec-13 14:28N 46°08' W 122°59'0 0.0
2017-Dec-13 13:58N 46°08' W 122°59'0 0.0
2017-Dec-13 13:28N 46°08' W 122°59'0 0.0
2017-Dec-13 12:58N 46°08' W 122°59'0 0.0
2017-Dec-13 12:28N 46°08' W 122°59'0 0.0
2017-Dec-13 11:52N 46°08' W 122°59'0 0.0
2017-Dec-13 11:25N 46°08' W 122°59'0 0.0
2017-Dec-13 10:58N 46°08' W 122°59'0 0.0
2017-Dec-13 10:28N 46°08' W 122°59'0 0.0
2017-Dec-13 09:55N 46°08' W 122°59'0 0.0
2017-Dec-13 09:28N 46°08' W 122°59'0 0.0
2017-Dec-13 08:55N 46°08' W 122°59'0 0.0
2017-Dec-13 08:28N 46°08' W 122°59'0 0.0
2017-Dec-13 07:28N 46°08' W 122°59'0 0.0
2017-Dec-13 06:58N 46°08' W 122°59'0 0.0
2017-Dec-13 06:25N 46°08' W 122°59'0 0.0
2017-Dec-13 05:58N 46°08' W 122°59'0 0.0
2017-Dec-13 05:28N 46°08' W 122°59'0 0.0
2017-Dec-13 04:58N 46°08' W 122°59'0 0.0
2017-Dec-13 04:25N 46°08' W 122°59'0 0.0
2017-Dec-13 03:55N 46°08' W 122°59'0 0.0
2017-Dec-13 03:25N 46°08' W 122°59'0 0.0
2017-Dec-13 02:55N 46°08' W 122°59'0 0.0
2017-Dec-13 02:28N 46°08' W 122°59'0 0.0
2017-Dec-13 01:28N 46°08' W 122°59'0 0.0
2017-Dec-13 00:58N 46°08' W 122°59'0 0.0
2017-Dec-13 00:25N 46°08' W 122°59'0 0.0
2017-Dec-12 23:55N 46°08' W 122°59'0 0.0
2017-Dec-12 23:28N 46°08' W 122°59'0 0.0
2017-Dec-12 22:58N 46°08' W 122°59'0 0.0
2017-Dec-12 22:25N 46°08' W 122°59'0 0.0
2017-Dec-12 21:58N 46°08' W 122°59'0 0.0
2017-Dec-12 21:22N 46°08' W 122°59'0 0.0
2017-Dec-12 20:58N 46°08' W 122°59'0 0.0
2017-Dec-12 20:28N 46°08' W 122°59'0 0.0
2017-Dec-12 19:58N 46°08' W 122°59'0 0.0
2017-Dec-12 19:07N 46°08' W 122°59'0 0.0
2017-Dec-12 18:43N 46°08' W 122°59'0 0.0
2017-Dec-12 18:25N 46°08' W 122°59'0 0.0
2017-Dec-12 17:55N 46°08' W 122°59'0 0.0
2017-Dec-12 17:25N 46°08' W 122°59'0 0.0
2017-Dec-12 16:59N 46°08' W 122°59'0 0.0
2017-Dec-12 16:25N 46°08' W 122°59'0 0.0
2017-Dec-12 15:55N 46°08' W 122°59'0 0.0
2017-Dec-12 15:25N 46°08' W 122°59'0 0.0
2017-Dec-12 14:59N 46°08' W 122°59'0 0.0
2017-Dec-12 14:25N 46°08' W 122°59'0 0.0
2017-Dec-12 13:58N 46°08' W 122°59'0 0.0
2017-Dec-12 13:28N 46°08' W 122°59'0 0.0
2017-Dec-12 12:58N 46°08' W 122°59'0 0.0
2017-Dec-12 12:10N 46°08' W 122°59'0 0.0
2017-Dec-12 11:58N 46°08' W 122°59'0 0.0
2017-Dec-12 11:28N 46°08' W 122°59'0 0.0
2017-Dec-12 10:55N 46°08' W 122°59'0 0.0
2017-Dec-12 10:19N 46°08' W 122°59'0 0.0
2017-Dec-12 10:01N 46°08' W 122°59'0 0.8
2017-Dec-12 09:30N 46°08' W 123°00'3 5.1
2017-Dec-12 09:01N 46°09' W 123°03'510.7
2017-Dec-12 08:30N 46°11' W 123°10'611.3
2017-Dec-12 08:00N 46°09' W 123°17'5 9.6
2017-Dec-12 07:30N 46°10' W 123°24'5 9.7
2017-Dec-12 07:00N 46°14' W 123°26'510.3
2017-Dec-12 06:30N 46°15' W 123°33'611.5
2017-Dec-12 06:00N 46°15' W 123°41'6 9.7
2017-Dec-12 05:24N 46°12' W 123°49'4 9.8
2017-Dec-12 05:00N 46°11' W 123°54'510.6
2017-Dec-12 04:30N 46°15' W 124°00'5 9.9
2017-Dec-12 04:00N 46°14' W 124°07'611.4
2017-Dec-12 03:30N 46°10' W 124°14'5 9.3
2017-Dec-12 03:00N 46°09' W 124°21'5 9.8
2017-Dec-12 02:27N 46°13' W 124°26'512.0
2017-Dec-12 02:00N 46°18' W 124°29'811.7
2017-Dec-12 01:20N 46°25' W 124°34'412.1
2017-Dec-12 01:00N 46°29' W 124°36'510.2
2017-Dec-12 00:30N 46°33' W 124°40'5 9.2
2017-Dec-12 00:01N 46°38' W 124°42'612.8
2017-Dec-11 23:31N 46°44' W 124°45'713.1
2017-Dec-11 23:00N 46°50' W 124°48'612.8
2017-Dec-11 22:30N 46°56' W 124°51'612.5
2017-Dec-11 22:00N 47°02' W 124°55'612.5
2017-Dec-11 21:30N 47°07' W 124°59'612.5
2017-Dec-11 21:00N 47°13' W 125°02'612.6
2017-Dec-11 20:30N 47°19' W 125°06'612.7
2017-Dec-11 20:00N 47°25' W 125°10'612.7
2017-Dec-11 19:30N 47°30' W 125°14'815.2
2017-Dec-11 19:00N 47°37' W 125°18'1018.3
2017-Dec-11 18:28N 47°47' W 125°22'2 3.7
2017-Dec-11 18:00N 47°49' W 125°22'1119.5
2017-Dec-11 17:26N 47°60' W 125°20'1 2.9
2017-Dec-11 17:00N 48°01' W 125°20'713.0
2017-Dec-11 16:27N 48°08' W 125°16'613.4
2017-Dec-11 16:00N 48°13' W 125°13'613.2
2017-Dec-11 15:30N 48°20' W 125°10'712.9
2017-Dec-11 15:00N 48°26' W 125°07'612.8
2017-Dec-11 14:30N 48°31' W 125°01'713.7
2017-Dec-11 14:00N 48°31' W 124°50'713.6
2017-Dec-11 13:30N 48°30' W 124°40'714.4
2017-Dec-11 13:00N 48°27' W 124°30'714.7
2017-Dec-11 12:30N 48°24' W 124°20'715.0
2017-Dec-11 12:00N 48°21' W 124°10'714.9
2017-Dec-11 11:30N 48°18' W 123°59'815.0
2017-Dec-11 11:00N 48°17' W 123°48'815.5
2017-Dec-11 10:30N 48°16' W 123°37'612.6
2017-Dec-11 10:00N 48°18' W 123°28'611.5
2017-Dec-11 09:31N 48°23' W 123°24'611.5
2017-Dec-11 09:00N 48°24' W 123°16'713.3
2017-Dec-11 08:31N 48°30' W 123°12'815.0
2017-Dec-11 08:01N 48°37' W 123°14'611.6
2017-Dec-11 07:30N 48°43' W 123°12'713.6
2017-Dec-11 07:00N 48°46' W 123°03'510.9
2017-Dec-11 06:30N 48°52' W 123°05'713.7
2017-Dec-11 05:59N 48°57' W 123°12'713.7
2017-Dec-11 05:30N 49°01' W 123°20'612.7
2017-Dec-11 05:00N 49°07' W 123°23'815.2
2017-Dec-11 04:30N 49°14' W 123°21'612.0
2017-Dec-11 04:00N 49°19' W 123°15'510.7
2017-Dec-11 03:30N 49°18' W 123°07'2 3.3
2017-Dec-11 03:00N 49°17' W 123°05'0 0.0
2017-Dec-11 02:30N 49°17' W 123°05'0 0.0
2017-Dec-11 02:00N 49°17' W 123°05'0 0.1
2017-Dec-11 01:30N 49°17' W 123°05'0 0.1
2017-Dec-11 01:00N 49°17' W 123°05'0 0.0
2017-Dec-11 00:30N 49°17' W 123°05'0 0.0
2017-Dec-11 00:00N 49°17' W 123°05'0 0.0
2017-Dec-10 23:30N 49°17' W 123°05'0 0.1
2017-Dec-10 23:00N 49°17' W 123°05'0 0.1
2017-Dec-10 22:30N 49°17' W 123°05'0 0.1
2017-Dec-10 22:00N 49°17' W 123°05'0 0.1
2017-Dec-10 21:30N 49°17' W 123°05'0 0.0
2017-Dec-10 21:00N 49°17' W 123°05'0 0.0
2017-Dec-10 20:30N 49°17' W 123°05'0 0.0
2017-Dec-10 20:00N 49°17' W 123°05'0 0.0
2017-Dec-10 19:30N 49°17' W 123°05'0 0.0
2017-Dec-10 19:00N 49°17' W 123°05'0 0.1
2017-Dec-10 18:30N 49°17' W 123°05'0 0.1
2017-Dec-10 18:00N 49°17' W 123°05'0 0.0
2017-Dec-10 17:30N 49°17' W 123°05'0 0.0
2017-Dec-10 17:00N 49°17' W 123°05'0 0.0
2017-Dec-10 16:30N 49°17' W 123°05'0 0.0
2017-Dec-10 16:00N 49°17' W 123°05'0 0.0
2017-Dec-10 15:30N 49°17' W 123°05'0 0.0
2017-Dec-10 15:00N 49°17' W 123°05'0 0.0
2017-Dec-10 14:30N 49°17' W 123°05'0 0.0
2017-Dec-10 14:00N 49°17' W 123°05'0 0.0
2017-Dec-10 13:30N 49°17' W 123°05'0 0.1
2017-Dec-10 13:00N 49°17' W 123°05'0 0.1
2017-Dec-10 12:30N 49°17' W 123°05'0 0.0
2017-Dec-10 12:00N 49°17' W 123°05'0 0.0
2017-Dec-10 11:30N 49°17' W 123°05'0 0.0
2017-Dec-10 11:00N 49°17' W 123°05'0 0.0
2017-Dec-10 10:30N 49°17' W 123°05'0 0.0
2017-Dec-10 10:00N 49°17' W 123°05'0 0.1
2017-Dec-10 09:30N 49°17' W 123°05'0 0.1
2017-Dec-10 09:00N 49°17' W 123°05'0 0.0
2017-Dec-10 08:30N 49°17' W 123°05'0 0.0
2017-Dec-10 08:00N 49°17' W 123°05'0 0.0
2017-Dec-10 07:30N 49°17' W 123°05'0 0.0
2017-Dec-10 07:00N 49°17' W 123°05'0 0.0
2017-Dec-10 06:30N 49°17' W 123°05'0 0.0
2017-Dec-10 06:00N 49°17' W 123°05'0 0.0
2017-Dec-10 05:30N 49°17' W 123°05'0 0.0
2017-Dec-10 05:00N 49°17' W 123°05'0 0.0
2017-Dec-10 04:30N 49°17' W 123°05'0 0.0
2017-Dec-10 04:00N 49°17' W 123°05'0 0.0
2017-Dec-10 03:30N 49°17' W 123°05'0 0.0
2017-Dec-10 03:00N 49°17' W 123°05'0 0.0
2017-Dec-10 02:30N 49°17' W 123°05'0 0.0
2017-Dec-10 02:00N 49°17' W 123°05'0 0.0
2017-Dec-10 01:30N 49°17' W 123°05'0 0.0
2017-Dec-10 01:00N 49°17' W 123°05'0 0.1
2017-Dec-10 00:30N 49°17' W 123°05'0 0.1
2017-Dec-10 00:00N 49°17' W 123°05'0 0.0
2017-Dec-09 23:30N 49°17' W 123°05'  

Dump ship's entire track history